createdAt,value
2019-05-21T00:00:28.560Z,15.24
2019-05-21T00:02:57.043Z,15.26
2019-05-21T00:05:25.553Z,15.26
2019-05-21T00:07:53.975Z,15.24
2019-05-21T00:10:22.486Z,15.25
2019-05-21T00:12:50.931Z,15.24
2019-05-21T00:15:19.365Z,15.25
2019-05-21T00:17:47.804Z,15.24
2019-05-21T00:20:16.365Z,15.25
2019-05-21T00:22:44.788Z,15.23
2019-05-21T00:25:17.188Z,15.22
2019-05-21T00:27:44.609Z,15.21
2019-05-21T00:30:49.498Z,15.21
2019-05-21T00:33:54.486Z,15.20
2019-05-21T00:37:01.210Z,15.22
2019-05-21T00:40:06.164Z,15.22
2019-05-21T00:42:37.679Z,15.21
2019-05-21T00:45:09.006Z,15.23
2019-05-21T00:47:37.442Z,15.23
2019-05-21T00:50:07.705Z,15.20
2019-05-21T00:52:36.274Z,15.18
2019-05-21T00:55:06.239Z,15.18
2019-05-21T00:57:34.676Z,15.17
2019-05-21T01:00:03.584Z,15.18
2019-05-21T01:02:32.262Z,15.15
2019-05-21T01:05:01.655Z,15.15
2019-05-21T01:07:30.265Z,15.13
2019-05-21T01:09:58.681Z,15.10
2019-05-21T01:12:27.116Z,15.10
2019-05-21T01:14:55.535Z,15.10
2019-05-21T01:17:23.969Z,15.08
2019-05-21T01:19:52.386Z,15.06
2019-05-21T01:22:20.815Z,15.06
2019-05-21T01:24:49.238Z,15.07
2019-05-21T01:27:17.668Z,15.08
2019-05-21T01:29:46.081Z,15.09
2019-05-21T01:32:14.513Z,15.08
2019-05-21T01:34:42.935Z,15.10
2019-05-21T01:37:11.363Z,15.12
2019-05-21T01:39:39.783Z,15.10
2019-05-21T01:42:08.216Z,15.10
2019-05-21T01:44:36.634Z,15.12
2019-05-21T01:47:05.068Z,15.10
2019-05-21T01:49:33.496Z,15.10
2019-05-21T01:52:01.928Z,15.08
2019-05-21T01:54:30.363Z,15.08
2019-05-21T01:56:58.787Z,15.09
2019-05-21T01:59:27.204Z,15.08
2019-05-21T02:01:55.648Z,15.10
2019-05-21T02:04:24.064Z,15.09
2019-05-21T02:06:52.859Z,15.09
2019-05-21T02:09:21.294Z,15.09
2019-05-21T02:11:49.704Z,15.07
2019-05-21T02:14:18.145Z,15.08
2019-05-21T02:16:46.560Z,15.11
2019-05-21T02:19:15.048Z,15.10
2019-05-21T02:21:43.432Z,15.12
2019-05-21T02:24:11.902Z,15.11
2019-05-21T02:26:40.331Z,15.09
2019-05-21T02:29:08.754Z,15.11
2019-05-21T02:31:37.184Z,15.10
2019-05-21T02:34:05.654Z,15.09
2019-05-21T02:36:34.088Z,15.09
2019-05-21T02:39:02.512Z,15.09
2019-05-21T02:41:30.937Z,15.07
2019-05-21T02:43:59.361Z,15.07
2019-05-21T02:46:27.778Z,15.08
2019-05-21T02:48:56.217Z,15.06
2019-05-21T02:51:25.274Z,15.07
2019-05-21T02:53:53.716Z,15.08
2019-05-21T02:56:22.123Z,15.08
2019-05-21T02:58:50.559Z,15.05
2019-05-21T03:01:35.588Z,15.04
2019-05-21T03:04:04.098Z,15.02
2019-05-21T03:06:32.516Z,14.99
2019-05-21T03:09:00.958Z,15.00
2019-05-21T03:11:29.377Z,15.00
2019-05-21T03:13:57.813Z,14.98
2019-05-21T03:16:26.251Z,14.95
2019-05-21T03:18:54.733Z,14.95
2019-05-21T03:21:23.174Z,14.97
2019-05-21T03:23:51.605Z,14.99
2019-05-21T03:26:20.037Z,15.00
2019-05-21T03:28:48.468Z,15.03
2019-05-21T03:31:16.904Z,15.00
2019-05-21T03:33:45.318Z,14.99
2019-05-21T03:36:31.137Z,15.01
2019-05-21T03:38:43.894Z,15.02
2019-05-21T03:41:12.314Z,15.02
2019-05-21T03:43:40.745Z,15.00
2019-05-21T03:46:09.164Z,14.99
2019-05-21T03:48:37.599Z,14.99
2019-05-21T03:51:06.016Z,15.02
2019-05-21T03:53:34.444Z,15.05
2019-05-21T03:56:02.883Z,15.04
2019-05-21T03:58:31.305Z,15.02
2019-05-21T04:00:59.725Z,15.02
2019-05-21T04:03:28.145Z,15.01
2019-05-21T04:05:56.595Z,15.00
2019-05-21T04:08:25.014Z,14.97
2019-05-21T04:10:53.442Z,14.96
2019-05-21T04:16:02.042Z,14.96
2019-05-21T04:18:44.156Z,14.96
2019-05-21T04:21:12.583Z,14.96
2019-05-21T04:23:40.991Z,14.98
2019-05-21T04:26:09.423Z,14.99
2019-05-21T04:28:37.841Z,14.99
2019-05-21T04:31:06.274Z,15.01
2019-05-21T04:33:34.685Z,15.01
2019-05-21T04:36:03.111Z,15.03
2019-05-21T04:38:31.524Z,15.03
2019-05-21T04:40:59.966Z,15.06
2019-05-21T04:43:28.383Z,15.07
2019-05-21T04:45:56.816Z,15.08
2019-05-21T04:48:25.281Z,15.10
2019-05-21T04:50:53.778Z,15.11
2019-05-21T04:53:22.187Z,15.12
2019-05-21T04:55:50.614Z,15.19
2019-05-21T04:58:19.030Z,15.20
2019-05-21T05:00:47.459Z,15.26
2019-05-21T05:03:15.873Z,15.30
2019-05-21T05:05:44.304Z,15.32
2019-05-21T05:08:12.723Z,15.29
2019-05-21T05:10:41.161Z,15.28
2019-05-21T05:13:09.561Z,15.22
2019-05-21T05:15:38.023Z,15.24
2019-05-21T05:18:06.396Z,15.26
2019-05-21T05:20:34.819Z,15.32
2019-05-21T05:23:03.243Z,15.34
2019-05-21T05:25:31.674Z,15.32
2019-05-21T05:28:00.090Z,15.32
2019-05-21T05:30:28.513Z,15.35
2019-05-21T05:32:56.925Z,15.30
2019-05-21T05:35:25.358Z,15.28
2019-05-21T05:37:53.771Z,15.36
2019-05-21T05:40:22.333Z,15.42
2019-05-21T05:42:50.742Z,15.49
2019-05-21T05:45:19.524Z,15.64
2019-05-21T05:47:47.934Z,15.74
2019-05-21T05:50:32.974Z,15.72
2019-05-21T05:53:01.388Z,15.70
2019-05-21T05:55:29.814Z,15.70
2019-05-21T05:57:58.225Z,15.67
2019-05-21T06:00:26.716Z,15.84
2019-05-21T06:02:55.142Z,15.97
2019-05-21T06:05:23.551Z,16.08
2019-05-21T06:07:59.806Z,16.09
2019-05-21T06:10:22.119Z,16.10
2019-05-21T06:12:50.549Z,16.15
2019-05-21T06:15:19.227Z,16.23
2019-05-21T06:17:47.648Z,16.34
2019-05-21T06:20:16.815Z,16.52
2019-05-21T06:22:45.259Z,16.63
2019-05-21T06:25:13.909Z,16.71
2019-05-21T06:27:42.326Z,16.86
2019-05-21T06:30:11.195Z,17.10
2019-05-21T06:32:39.607Z,17.31
2019-05-21T06:35:08.256Z,17.40
2019-05-21T06:37:36.685Z,17.42
2019-05-21T06:40:06.152Z,17.16
2019-05-21T06:42:34.579Z,17.03
2019-05-21T06:45:03.586Z,17.00
2019-05-21T06:47:32.134Z,16.94
2019-05-21T06:50:00.558Z,16.85
2019-05-21T06:52:28.987Z,16.93
2019-05-21T06:54:57.404Z,17.07
2019-05-21T06:57:25.831Z,17.30
2019-05-21T06:59:54.238Z,17.62
2019-05-21T07:02:22.657Z,17.74
2019-05-21T07:04:51.068Z,18.07
2019-05-21T07:07:19.504Z,18.31
2019-05-21T07:09:47.913Z,18.69
2019-05-21T07:12:16.338Z,18.85
2019-05-21T07:14:44.753Z,18.80
2019-05-21T07:17:13.190Z,18.75
2019-05-21T07:19:41.606Z,18.97
2019-05-21T07:22:12.978Z,19.23
2019-05-21T07:24:40.529Z,19.18
2019-05-21T07:27:08.973Z,18.94
2019-05-21T07:29:37.869Z,19.12
2019-05-21T07:32:06.376Z,19.40
2019-05-21T07:34:34.883Z,19.32
2019-05-21T07:37:03.336Z,19.31
2019-05-21T07:39:31.734Z,18.66
2019-05-21T07:42:00.259Z,18.50
2019-05-21T07:44:29.765Z,18.54
2019-05-21T07:47:02.283Z,18.47
2019-05-21T07:49:34.471Z,18.52
2019-05-21T07:52:03.476Z,18.42
2019-05-21T07:54:34.178Z,18.40
2019-05-21T07:57:02.819Z,18.39
2019-05-21T07:59:33.308Z,18.44
2019-05-21T08:02:08.124Z,18.58
2019-05-21T08:04:39.131Z,18.43
2019-05-21T08:07:11.438Z,18.52
2019-05-21T08:09:41.170Z,18.33
2019-05-21T08:12:27.905Z,18.44
2019-05-21T08:14:39.955Z,18.72
2019-05-21T08:17:08.434Z,18.88
2019-05-21T08:19:36.846Z,18.93
2019-05-21T08:22:05.278Z,19.07
2019-05-21T08:24:33.717Z,19.10
2019-05-21T08:27:02.148Z,19.09
2019-05-21T08:29:32.358Z,19.18
2019-05-21T08:32:00.778Z,19.08
2019-05-21T08:34:29.326Z,19.43
2019-05-21T08:37:05.233Z,19.63
2019-05-21T08:39:33.738Z,19.67
2019-05-21T08:42:02.211Z,19.74
2019-05-21T08:44:32.045Z,19.69
2019-05-21T08:47:06.781Z,19.58
2019-05-21T08:49:47.027Z,19.43
2019-05-21T08:52:16.131Z,19.56
2019-05-21T08:54:48.993Z,20.03
2019-05-21T08:57:17.821Z,19.97
2019-05-21T08:59:46.490Z,20.17
2019-05-21T09:02:15.769Z,20.55
2019-05-21T09:04:46.615Z,20.62
2019-05-21T09:07:14.510Z,20.63
2019-05-21T09:09:50.123Z,20.90
2019-05-21T09:12:13.115Z,21.09
2019-05-21T09:14:41.544Z,21.30
2019-05-21T09:17:09.934Z,21.59
2019-05-21T09:19:38.353Z,21.91
2019-05-21T09:22:06.754Z,21.76
2019-05-21T09:24:35.179Z,21.42
2019-05-21T09:27:03.657Z,20.93
2019-05-21T09:29:32.089Z,20.93
2019-05-21T09:32:00.507Z,20.95
2019-05-21T09:34:28.992Z,20.70
2019-05-21T09:36:57.403Z,20.44
2019-05-21T09:39:25.810Z,20.40
2019-05-21T09:41:54.251Z,20.30
2019-05-21T09:44:22.694Z,20.69
2019-05-21T09:46:51.183Z,21.68
2019-05-21T09:49:19.602Z,21.97
2019-05-21T09:51:48.033Z,22.65
2019-05-21T09:54:16.470Z,22.55
2019-05-21T09:56:44.885Z,21.54
2019-05-21T09:59:26.980Z,20.92
2019-05-21T10:01:57.034Z,20.22
2019-05-21T10:04:25.453Z,20.02
2019-05-21T10:06:53.873Z,20.21
2019-05-21T10:09:22.380Z,20.64
2019-05-21T10:11:50.794Z,20.65
2019-05-21T10:14:19.224Z,21.27
2019-05-21T10:16:47.636Z,21.73
2019-05-21T10:19:16.119Z,22.15
2019-05-21T10:21:44.599Z,22.70
2019-05-21T10:24:13.026Z,21.77
2019-05-21T10:26:41.433Z,21.31
2019-05-21T10:29:09.875Z,21.24
2019-05-21T10:31:38.294Z,21.25
2019-05-21T10:34:06.804Z,21.53
2019-05-21T10:36:35.221Z,21.17
2019-05-21T10:39:05.313Z,21.27
2019-05-21T10:41:33.725Z,20.87
2019-05-21T10:44:02.236Z,20.58
2019-05-21T10:46:30.655Z,20.36
2019-05-21T10:48:59.078Z,20.09
2019-05-21T10:51:27.493Z,19.74
2019-05-21T10:53:55.917Z,19.57
2019-05-21T10:56:24.329Z,19.15
2019-05-21T10:58:52.764Z,19.31
2019-05-21T11:01:39.080Z,19.29
2019-05-21T11:04:11.560Z,19.18
2019-05-21T11:06:41.709Z,18.85
2019-05-21T11:09:11.853Z,18.54
2019-05-21T11:11:40.268Z,18.41
2019-05-21T11:14:08.694Z,17.94
2019-05-21T11:16:37.119Z,18.09
2019-05-21T11:19:05.529Z,17.99
2019-05-21T11:21:33.968Z,17.78
2019-05-21T11:24:02.558Z,17.65
2019-05-21T11:26:31.039Z,17.54
2019-05-21T11:28:59.546Z,17.30
2019-05-21T11:31:27.965Z,17.10
2019-05-21T11:33:56.377Z,17.21
2019-05-21T11:36:24.805Z,17.19
2019-05-21T11:38:53.220Z,17.30
2019-05-21T11:41:21.656Z,17.18
2019-05-21T11:43:50.060Z,17.03
2019-05-21T11:46:18.485Z,17.16
2019-05-21T11:48:46.895Z,17.13
2019-05-21T11:51:15.424Z,17.07
2019-05-21T11:53:43.828Z,16.90
2019-05-21T11:56:12.249Z,17.11
2019-05-21T11:58:40.650Z,17.07
2019-05-21T12:01:09.074Z,17.01
2019-05-21T12:03:37.502Z,16.91
2019-05-21T12:06:05.958Z,16.71
2019-05-21T12:08:34.355Z,16.72
2019-05-21T12:11:02.778Z,16.84
2019-05-21T12:13:31.209Z,17.02
2019-05-21T12:15:59.598Z,17.07
2019-05-21T12:18:28.016Z,17.02
2019-05-21T12:23:40.944Z,17.27
2019-05-21T12:26:09.369Z,17.19
2019-05-21T12:28:37.767Z,17.02
2019-05-21T12:31:06.190Z,16.76
2019-05-21T12:33:35.255Z,16.68
2019-05-21T12:36:04.224Z,16.82
2019-05-21T12:38:32.628Z,16.89
2019-05-21T12:41:01.065Z,16.89
2019-05-21T12:43:29.478Z,16.71
2019-05-21T12:45:57.893Z,16.66
2019-05-21T12:48:26.298Z,16.66
2019-05-21T12:50:54.726Z,16.57
2019-05-21T12:53:23.126Z,16.49
2019-05-21T12:55:51.673Z,16.58
2019-05-21T12:58:20.027Z,16.51
2019-05-21T13:00:48.448Z,16.56
2019-05-21T13:03:16.871Z,16.56
2019-05-21T13:05:45.304Z,16.46
2019-05-21T13:08:13.709Z,16.43
2019-05-21T13:10:55.729Z,16.32
2019-05-21T13:13:24.150Z,16.32
2019-05-21T13:15:52.579Z,16.38
2019-05-21T13:18:21.062Z,16.26
2019-05-21T13:20:49.488Z,16.10
2019-05-21T13:23:17.893Z,16.11
2019-05-21T13:25:46.425Z,16.09
2019-05-21T13:28:14.809Z,15.86
2019-05-21T13:30:43.314Z,15.85
2019-05-21T13:33:11.735Z,15.80
2019-05-21T13:35:40.235Z,15.72
2019-05-21T13:38:13.150Z,15.70
2019-05-21T13:40:38.934Z,15.43
2019-05-21T13:43:07.430Z,15.55
2019-05-21T13:45:35.849Z,15.58
2019-05-21T13:48:04.325Z,15.52
2019-05-21T13:50:32.921Z,15.56
2019-05-21T13:53:01.337Z,15.61
2019-05-21T13:55:33.782Z,15.62
2019-05-21T13:57:59.897Z,15.44
2019-05-21T14:00:42.265Z,15.40
2019-05-21T14:03:10.764Z,15.50
2019-05-21T14:05:39.541Z,15.47
2019-05-21T14:08:08.052Z,15.42
2019-05-21T14:10:36.519Z,15.36
2019-05-21T14:13:05.263Z,15.47
2019-05-21T14:15:33.723Z,15.46
2019-05-21T14:18:02.433Z,15.32
2019-05-21T14:20:31.089Z,15.33
2019-05-21T14:22:59.719Z,15.43
2019-05-21T14:25:28.073Z,15.54
2019-05-21T14:27:56.797Z,15.43
2019-05-21T14:30:25.411Z,15.37
2019-05-21T14:32:53.832Z,15.26
2019-05-21T14:35:22.324Z,15.33
2019-05-21T14:37:50.760Z,15.32
2019-05-21T14:40:31.231Z,15.30
2019-05-21T14:42:59.867Z,15.29
2019-05-21T14:45:21.805Z,15.29
2019-05-21T14:47:50.228Z,15.28
2019-05-21T14:50:18.781Z,15.24
2019-05-21T14:52:51.976Z,15.17
2019-05-21T14:55:17.491Z,15.13
2019-05-21T14:57:46.003Z,15.04
2019-05-21T15:00:22.616Z,15.08
2019-05-21T15:02:51.050Z,15.13
2019-05-21T15:05:19.623Z,15.20
2019-05-21T15:07:49.770Z,15.12
2019-05-21T15:10:18.318Z,15.05
2019-05-21T15:12:46.802Z,14.98
2019-05-21T15:15:15.804Z,15.06
2019-05-21T15:17:44.285Z,15.17
2019-05-21T15:20:31.649Z,15.20
2019-05-21T15:23:00.133Z,15.22
2019-05-21T15:25:28.489Z,15.13
2019-05-21T15:27:56.916Z,15.20
2019-05-21T15:30:25.338Z,15.07
2019-05-21T15:32:53.765Z,15.06
2019-05-21T15:35:22.680Z,15.00
2019-05-21T15:37:51.104Z,14.94
2019-05-21T15:40:19.757Z,14.85
2019-05-21T15:42:52.690Z,14.87
2019-05-21T15:45:18.920Z,14.91
2019-05-21T15:47:47.346Z,14.95
2019-05-21T15:50:16.439Z,14.95
2019-05-21T15:52:44.875Z,14.95
2019-05-21T15:55:13.638Z,14.95
2019-05-21T15:57:42.122Z,14.98
2019-05-21T16:00:12.761Z,14.96
2019-05-21T16:02:41.503Z,14.97
2019-05-21T16:05:10.344Z,14.95
2019-05-21T16:07:38.805Z,14.95
2019-05-21T16:10:07.285Z,14.92
2019-05-21T16:12:35.728Z,14.91
2019-05-21T16:15:06.251Z,14.85
2019-05-21T16:17:34.680Z,14.84
2019-05-21T16:20:03.562Z,14.76
2019-05-21T16:22:31.989Z,14.73
2019-05-21T16:25:00.400Z,14.62
2019-05-21T16:27:28.842Z,14.59
2019-05-21T16:29:57.492Z,14.58
2019-05-21T16:32:25.852Z,14.51
2019-05-21T16:34:54.344Z,14.46
2019-05-21T16:37:22.750Z,14.49
2019-05-21T16:39:51.254Z,14.43
2019-05-21T16:42:19.869Z,14.43
2019-05-21T16:44:48.294Z,14.38
2019-05-21T16:47:16.892Z,14.35
2019-05-21T16:49:45.368Z,14.29
2019-05-21T16:52:13.944Z,14.23
2019-05-21T16:54:42.369Z,14.24
2019-05-21T16:57:10.776Z,14.20
2019-05-21T16:59:39.217Z,14.22
2019-05-21T17:02:07.637Z,14.14
2019-05-21T17:04:36.075Z,14.10
2019-05-21T17:07:04.489Z,14.13
2019-05-21T17:09:32.910Z,14.15
2019-05-21T17:12:01.410Z,14.10
2019-05-21T17:14:29.838Z,14.13
2019-05-21T17:16:58.260Z,14.16
2019-05-21T17:19:26.682Z,14.17
2019-05-21T17:21:55.105Z,14.17
2019-05-21T17:24:23.531Z,14.17
2019-05-21T17:26:51.952Z,14.21
2019-05-21T17:29:20.395Z,14.22
2019-05-21T17:31:48.905Z,14.22
2019-05-21T17:34:17.329Z,14.13
2019-05-21T17:36:45.758Z,14.06
2019-05-21T17:39:14.183Z,14.06
2019-05-21T17:41:42.597Z,14.08
2019-05-21T17:44:11.028Z,14.11
2019-05-21T17:46:39.496Z,14.08
2019-05-21T17:49:07.950Z,14.04
2019-05-21T17:51:36.370Z,14.07
2019-05-21T17:54:04.939Z,14.08
2019-05-21T17:56:33.425Z,14.10
2019-05-21T17:59:01.864Z,14.08
2019-05-21T18:01:30.651Z,14.11
2019-05-21T18:03:59.091Z,14.12
2019-05-21T18:06:28.383Z,14.11
2019-05-21T18:08:56.810Z,14.11
2019-05-21T18:11:25.298Z,14.12
2019-05-21T18:13:54.010Z,14.07
2019-05-21T18:16:22.428Z,14.11
2019-05-21T18:18:51.813Z,14.12
2019-05-21T18:21:20.506Z,14.13
2019-05-21T18:23:49.077Z,14.13
2019-05-21T18:26:17.502Z,14.14
2019-05-21T18:28:45.950Z,14.11
2019-05-21T18:31:14.451Z,14.08
2019-05-21T18:33:43.008Z,14.08
2019-05-21T18:36:11.502Z,14.06
2019-05-21T18:38:39.967Z,14.05
2019-05-21T18:41:08.344Z,14.01
2019-05-21T18:43:36.763Z,14.01
2019-05-21T18:46:05.201Z,14.05
2019-05-21T18:48:33.618Z,14.04
2019-05-21T18:51:02.059Z,14.03
2019-05-21T18:53:30.479Z,14.01
2019-05-21T18:55:58.923Z,14.03
2019-05-21T18:58:28.170Z,14.04
2019-05-21T19:00:56.682Z,14.03
2019-05-21T19:03:25.830Z,14.01
2019-05-21T19:05:54.574Z,13.99
2019-05-21T19:08:23.057Z,14.01
2019-05-21T19:10:51.498Z,14.02
2019-05-21T19:13:19.927Z,14.02
2019-05-21T19:15:48.370Z,14.00
2019-05-21T19:18:16.865Z,14.03
2019-05-21T19:20:45.305Z,14.03
2019-05-21T19:23:13.728Z,14.00
2019-05-21T19:25:42.153Z,14.02
2019-05-21T19:28:10.569Z,14.05
2019-05-21T19:30:39.067Z,14.04
2019-05-21T19:33:07.561Z,14.02
2019-05-21T19:35:36.058Z,14.02
2019-05-21T19:38:04.474Z,14.02
2019-05-21T19:40:32.908Z,14.03
2019-05-21T19:43:01.415Z,14.03
2019-05-21T19:45:31.481Z,14.04
2019-05-21T19:48:00.021Z,14.02
2019-05-21T19:50:28.452Z,14.02
2019-05-21T19:52:56.865Z,14.03
2019-05-21T19:55:26.572Z,14.02
2019-05-21T19:57:55.108Z,14.02
2019-05-21T20:00:24.306Z,14.02
2019-05-21T20:02:52.898Z,14.00
2019-05-21T20:05:21.323Z,14.02
2019-05-21T20:07:49.739Z,14.00
2019-05-21T20:10:18.505Z,14.01
2019-05-21T20:12:47.033Z,13.98
2019-05-21T20:15:16.415Z,13.96
2019-05-21T20:17:45.898Z,13.96
2019-05-21T20:20:15.656Z,13.94
2019-05-21T20:22:45.205Z,13.92
2019-05-21T20:25:14.378Z,13.93
2019-05-21T20:27:43.742Z,13.89
2019-05-21T20:30:15.657Z,13.87
2019-05-21T20:32:44.438Z,13.85
2019-05-21T20:35:15.507Z,13.83
2019-05-21T20:37:45.061Z,13.82
2019-05-21T20:40:14.975Z,13.76
2019-05-21T20:42:43.618Z,13.73
2019-05-21T20:45:14.554Z,13.73
2019-05-21T20:47:44.515Z,13.74
2019-05-21T20:50:15.215Z,13.72
2019-05-21T20:52:43.772Z,13.69
2019-05-21T20:55:12.483Z,13.69
2019-05-21T20:57:41.276Z,13.70
2019-05-21T21:00:11.013Z,13.69
2019-05-21T21:02:41.566Z,13.64
2019-05-21T21:05:11.393Z,13.61
2019-05-21T21:07:40.064Z,13.59
2019-05-21T21:10:10.706Z,13.55
2019-05-21T21:12:40.347Z,13.51
2019-05-21T21:15:10.064Z,13.51
2019-05-21T21:17:38.497Z,13.49
2019-05-21T21:20:08.657Z,13.52
2019-05-21T21:22:37.251Z,13.45
2019-05-21T21:25:08.679Z,13.45
2019-05-21T21:27:37.356Z,13.42
2019-05-21T21:30:10.518Z,13.39
2019-05-21T21:32:39.388Z,13.37
2019-05-21T21:35:10.087Z,13.36
2019-05-21T21:37:38.589Z,13.36
2019-05-21T21:40:08.986Z,13.34
2019-05-21T21:42:37.413Z,13.32
2019-05-21T21:45:07.540Z,13.33
2019-05-21T21:47:37.245Z,13.34
2019-05-21T21:50:07.400Z,13.36
2019-05-21T21:52:36.453Z,13.37
2019-05-21T21:55:08.105Z,13.37
2019-05-21T21:57:36.536Z,13.33
2019-05-21T22:00:59.643Z,13.33
2019-05-21T22:03:33.785Z,13.32
2019-05-21T22:06:04.449Z,13.29
2019-05-21T22:08:33.887Z,13.27
2019-05-21T22:11:02.944Z,13.26
2019-05-21T22:13:31.466Z,13.26
2019-05-21T22:16:01.234Z,13.24
2019-05-21T22:18:30.109Z,13.24
2019-05-21T22:20:59.496Z,13.25
2019-05-21T22:23:28.629Z,13.26
2019-05-21T22:25:57.040Z,13.24
2019-05-21T22:28:25.481Z,13.24
2019-05-21T22:30:53.895Z,13.23
2019-05-21T22:33:22.403Z,13.20
2019-05-21T22:35:50.826Z,13.23
2019-05-21T22:38:19.252Z,13.19
2019-05-21T22:40:47.670Z,13.18
2019-05-21T22:43:16.105Z,13.13
2019-05-21T22:45:44.692Z,13.09
2019-05-21T22:48:13.465Z,13.12
2019-05-21T22:50:41.895Z,13.10
2019-05-21T22:53:10.493Z,13.07
2019-05-21T22:55:38.909Z,13.08
2019-05-21T22:58:07.416Z,13.10
2019-05-21T23:00:35.832Z,13.06
2019-05-21T23:03:04.914Z,13.06
2019-05-21T23:05:33.390Z,13.06
2019-05-21T23:08:02.616Z,13.04
2019-05-21T23:10:31.391Z,13.02
2019-05-21T23:12:59.837Z,13.00
2019-05-21T23:15:28.322Z,12.98
2019-05-21T23:17:57.126Z,13.00
2019-05-21T23:20:28.861Z,13.00
2019-05-21T23:22:57.754Z,12.98
2019-05-21T23:25:27.353Z,12.95
2019-05-21T23:27:55.777Z,12.95
2019-05-21T23:30:24.400Z,12.91
2019-05-21T23:32:52.836Z,12.91
2019-05-21T23:35:22.040Z,12.89
2019-05-21T23:37:50.646Z,12.89
2019-05-21T23:40:19.085Z,12.82
2019-05-21T23:42:47.506Z,12.84
2019-05-21T23:45:16.490Z,12.85
2019-05-21T23:47:44.990Z,12.84
2019-05-21T23:50:14.423Z,12.84
2019-05-21T23:52:42.981Z,12.81
2019-05-21T23:55:12.384Z,12.79
2019-05-21T23:57:42.115Z,12.79
